sensor_id;sensor_type;location;lat;lon;timestamp;pressure;altitude;pressure_sealevel;temperature;humidity
49315;BME280;36672;50.710;12.498;2023-01-29T00:01:58;99713.47;;;-2.12;65.38
49315;BME280;36672;50.710;12.498;2023-01-29T00:04:23;99706.75;;;-2.18;65.68
49315;BME280;36672;50.710;12.498;2023-01-29T00:06:48;99708.16;;;-2.12;65.75
49315;BME280;36672;50.710;12.498;2023-01-29T00:09:14;99682.69;;;-2.29;66.25
49315;BME280;36672;50.710;12.498;2023-01-29T00:11:39;99713.72;;;-2.17;66.43
49315;BME280;36672;50.710;12.498;2023-01-29T00:14:05;99694.03;;;-2.27;65.94
49315;BME280;36672;50.710;12.498;2023-01-29T00:16:30;99674.75;;;-2.29;66.30
49315;BME280;36672;50.710;12.498;2023-01-29T00:18:56;99678.06;;;-2.25;66.31
49315;BME280;36672;50.710;12.498;2023-01-29T00:21:22;99684.69;;;-2.18;66.16
49315;BME280;36672;50.710;12.498;2023-01-29T00:23:48;99677.19;;;-2.26;66.21
49315;BME280;36672;50.710;12.498;2023-01-29T00:26:13;99651.38;;;-2.37;65.89
49315;BME280;36672;50.710;12.498;2023-01-29T00:28:39;99669.84;;;-2.21;66.11
49315;BME280;36672;50.710;12.498;2023-01-29T00:31:10;99605.06;;;-2.60;65.97
49315;BME280;36672;50.710;12.498;2023-01-29T00:33:35;99664.53;;;-2.21;66.29
49315;BME280;36672;50.710;12.498;2023-01-29T00:36:05;99650.91;;;-2.29;66.10
49315;BME280;36672;50.710;12.498;2023-01-29T00:38:32;99662.78;;;-2.20;65.99
49315;BME280;36672;50.710;12.498;2023-01-29T00:41:07;99667.19;;;-2.21;65.80
49315;BME280;36672;50.710;12.498;2023-01-29T00:43:52;99665.94;;;-2.30;65.84
49315;BME280;36672;50.710;12.498;2023-01-29T00:46:36;99637.81;;;-2.47;66.26
49315;BME280;36672;50.710;12.498;2023-01-29T00:49:02;99663.97;;;-2.26;66.72
49315;BME280;36672;50.710;12.498;2023-01-29T00:51:28;99647.50;;;-2.31;66.61
49315;BME280;36672;50.710;12.498;2023-01-29T00:53:53;99655.88;;;-2.23;66.28
49315;BME280;36672;50.710;12.498;2023-01-29T00:56:25;99667.03;;;-2.18;66.34
49315;BME280;36672;50.710;12.498;2023-01-29T00:58:51;99637.75;;;-2.31;66.42
49315;BME280;36672;50.710;12.498;2023-01-29T01:01:16;99649.13;;;-2.28;66.34
49315;BME280;36672;50.710;12.498;2023-01-29T01:04:01;99662.78;;;-2.20;66.62
49315;BME280;36672;50.710;12.498;2023-01-29T01:06:27;99639.19;;;-2.39;66.63
49315;BME280;36672;50.710;12.498;2023-01-29T01:08:52;99653.34;;;-2.40;66.76
49315;BME280;36672;50.710;12.498;2023-01-29T01:11:36;99657.69;;;-2.39;67.26
49315;BME280;36672;50.710;12.498;2023-01-29T01:14:01;99663.00;;;-2.39;67.28
49315;BME280;36672;50.710;12.498;2023-01-29T01:16:27;99659.56;;;-2.41;67.72
49315;BME280;36672;50.710;12.498;2023-01-29T01:18:52;99668.19;;;-2.38;67.42
49315;BME280;36672;50.710;12.498;2023-01-29T01:21:17;99656.34;;;-2.47;67.29
49315;BME280;36672;50.710;12.498;2023-01-29T01:23:43;99672.56;;;-2.37;67.19
49315;BME280;36672;50.710;12.498;2023-01-29T01:26:08;99651.31;;;-2.51;67.65
49315;BME280;36672;50.710;12.498;2023-01-29T01:28:35;99646.28;;;-2.56;66.82
49315;BME280;36672;50.710;12.498;2023-01-29T01:31:07;99642.09;;;-2.60;67.14
49315;BME280;36672;50.710;12.498;2023-01-29T01:33:33;99661.78;;;-2.50;66.72
49315;BME280;36672;50.710;12.498;2023-01-29T01:36:00;99650.63;;;-2.55;66.47
49315;BME280;36672;50.710;12.498;2023-01-29T01:38:26;99654.03;;;-2.53;66.42
49315;BME280;36672;50.710;12.498;2023-01-29T01:40:51;99661.31;;;-2.56;66.54
49315;BME280;36672;50.710;12.498;2023-01-29T01:43:16;99660.53;;;-2.58;66.76
49315;BME280;36672;50.710;12.498;2023-01-29T01:45:42;99640.84;;;-2.69;66.79
49315;BME280;36672;50.710;12.498;2023-01-29T01:48:22;99660.63;;;-2.60;66.67
49315;BME280;36672;50.710;12.498;2023-01-29T01:50:54;99658.16;;;-2.63;65.90
49315;BME280;36672;50.710;12.498;2023-01-29T01:53:34;99658.50;;;-2.69;65.73
49315;BME280;36672;50.710;12.498;2023-01-29T01:56:06;99645.44;;;-2.72;66.08
49315;BME280;36672;50.710;12.498;2023-01-29T01:58:39;99649.88;;;-2.73;66.09
49315;BME280;36672;50.710;12.498;2023-01-29T02:01:08;99635.16;;;-2.77;66.21
49315;BME280;36672;50.710;12.498;2023-01-29T02:03:44;99658.25;;;-2.65;65.45
49315;BME280;36672;50.710;12.498;2023-01-29T02:06:30;99661.25;;;-2.71;65.87
49315;BME280;36672;50.710;12.498;2023-01-29T02:09:19;99649.66;;;-2.84;64.81
49315;BME280;36672;50.710;12.498;2023-01-29T02:12:00;99636.66;;;-2.89;66.15
49315;BME280;36672;50.710;12.498;2023-01-29T02:14:25;99646.91;;;-2.83;66.08
49315;BME280;36672;50.710;12.498;2023-01-29T02:16:51;99632.16;;;-2.87;66.32
49315;BME280;36672;50.710;12.498;2023-01-29T02:20:02;99650.91;;;-2.75;66.31
49315;BME280;36672;50.710;12.498;2023-01-29T02:28:20;99629.06;;;-2.79;65.95
49315;BME280;36672;50.710;12.498;2023-01-29T02:41:22;99630.03;;;-2.96;66.37
49315;BME280;36672;50.710;12.498;2023-01-29T02:54:36;99632.69;;;-3.12;67.01
49315;BME280;36672;50.710;12.498;2023-01-29T02:57:23;99641.88;;;-3.19;67.09
49315;BME280;36672;50.710;12.498;2023-01-29T02:59:56;99655.78;;;-3.16;66.60
49315;BME280;36672;50.710;12.498;2023-01-29T03:02:45;99611.34;;;-3.41;66.84
49315;BME280;36672;50.710;12.498;2023-01-29T03:05:15;99640.25;;;-3.22;66.83
49315;BME280;36672;50.710;12.498;2023-01-29T03:07:52;99663.72;;;-3.16;66.93
49315;BME280;36672;50.710;12.498;2023-01-29T03:10:36;99661.06;;;-3.16;67.34
49315;BME280;36672;50.710;12.498;2023-01-29T03:13:27;99660.47;;;-3.21;66.78
49315;BME280;36672;50.710;12.498;2023-01-29T03:16:02;99637.53;;;-3.36;67.37
49315;BME280;36672;50.710;12.498;2023-01-29T03:18:35;99654.78;;;-3.29;67.52
49315;BME280;36672;50.710;12.498;2023-01-29T03:21:12;99647.78;;;-3.30;67.25
49315;BME280;36672;50.710;12.498;2023-01-29T03:23:58;99636.69;;;-3.37;67.64
49315;BME280;36672;50.710;12.498;2023-01-29T03:26:43;99645.56;;;-3.38;67.71
49315;BME280;36672;50.710;12.498;2023-01-29T03:29:33;99632.31;;;-3.54;67.62
49315;BME280;36672;50.710;12.498;2023-01-29T03:32:20;99638.09;;;-3.63;68.05
49315;BME280;36672;50.710;12.498;2023-01-29T03:34:49;99640.22;;;-3.70;68.17
49315;BME280;36672;50.710;12.498;2023-01-29T03:37:21;99660.16;;;-3.64;68.19
49315;BME280;36672;50.710;12.498;2023-01-29T03:39:50;99670.09;;;-3.69;68.35
49315;BME280;36672;50.710;12.498;2023-01-29T03:45:33;99659.34;;;-3.82;68.93
49315;BME280;36672;50.710;12.498;2023-01-29T03:53:22;99655.00;;;-3.83;68.95
49315;BME280;36672;50.710;12.498;2023-01-29T03:56:00;99654.91;;;-3.82;69.23
49315;BME280;36672;50.710;12.498;2023-01-29T04:01:02;99647.91;;;-3.83;69.82
49315;BME280;36672;50.710;12.498;2023-01-29T04:03:36;99662.00;;;-3.66;69.99
49315;BME280;36672;50.710;12.498;2023-01-29T04:06:10;99664.59;;;-3.65;69.19
49315;BME280;36672;50.710;12.498;2023-01-29T04:08:45;99659.97;;;-3.61;69.35
49315;BME280;36672;50.710;12.498;2023-01-29T04:11:15;99646.84;;;-3.63;69.71
49315;BME280;36672;50.710;12.498;2023-01-29T04:13:43;99654.97;;;-3.50;69.72
49315;BME280;36672;50.710;12.498;2023-01-29T04:16:15;99647.00;;;-3.48;69.42
49315;BME280;36672;50.710;12.498;2023-01-29T04:18:46;99623.00;;;-3.61;69.63
49315;BME280;36672;50.710;12.498;2023-01-29T04:21:13;99638.38;;;-3.52;69.42
49315;BME280;36672;50.710;12.498;2023-01-29T04:23:39;99634.94;;;-3.54;69.82
49315;BME280;36672;50.710;12.498;2023-01-29T04:32:13;99633.03;;;-3.68;69.77
49315;BME280;36672;50.710;12.498;2023-01-29T04:34:58;99610.78;;;-3.80;69.98
49315;BME280;36672;50.710;12.498;2023-01-29T04:37:43;99623.28;;;-3.83;69.91
49315;BME280;36672;50.710;12.498;2023-01-29T04:40:14;99623.13;;;-3.80;70.27
49315;BME280;36672;50.710;12.498;2023-01-29T04:42:47;99615.53;;;-3.86;70.36
49315;BME280;36672;50.710;12.498;2023-01-29T04:48:20;99584.44;;;-4.15;70.13
49315;BME280;36672;50.710;12.498;2023-01-29T04:50:52;99597.09;;;-4.04;70.54
49315;BME280;36672;50.710;12.498;2023-01-29T04:53:29;99569.94;;;-4.23;70.52
49315;BME280;36672;50.710;12.498;2023-01-29T04:58:49;99582.03;;;-4.19;71.20
49315;BME280;36672;50.710;12.498;2023-01-29T05:01:21;99578.78;;;-4.24;71.02
49315;BME280;36672;50.710;12.498;2023-01-29T05:03:51;99551.59;;;-4.43;71.47
49315;BME280;36672;50.710;12.498;2023-01-29T05:06:17;99568.63;;;-4.32;71.08
49315;BME280;36672;50.710;12.498;2023-01-29T05:08:46;99563.53;;;-4.35;71.29
49315;BME280;36672;50.710;12.498;2023-01-29T05:11:14;99565.47;;;-4.39;71.35
49315;BME280;36672;50.710;12.498;2023-01-29T05:13:41;99567.41;;;-4.43;71.58
49315;BME280;36672;50.710;12.498;2023-01-29T05:16:13;99565.00;;;-4.47;71.71
49315;BME280;36672;50.710;12.498;2023-01-29T05:18:40;99559.91;;;-4.50;71.34
49315;BME280;36672;50.710;12.498;2023-01-29T05:21:07;99561.81;;;-4.54;71.51
49315;BME280;36672;50.710;12.498;2023-01-29T05:23:34;99557.97;;;-4.64;71.56
49315;BME280;36672;50.710;12.498;2023-01-29T05:25:59;99566.78;;;-4.65;71.89
49315;BME280;36672;50.710;12.498;2023-01-29T05:28:25;99554.22;;;-4.78;72.15
49315;BME280;36672;50.710;12.498;2023-01-29T05:30:52;99564.31;;;-4.86;72.02
49315;BME280;36672;50.710;12.498;2023-01-29T05:33:29;99543.69;;;-4.95;72.94
49315;BME280;36672;50.710;12.498;2023-01-29T05:35:57;99559.81;;;-4.84;72.69
49315;BME280;36672;50.710;12.498;2023-01-29T05:38:23;99567.88;;;-4.87;72.32
49315;BME280;36672;50.710;12.498;2023-01-29T05:40:48;99544.75;;;-4.99;72.41
49315;BME280;36672;50.710;12.498;2023-01-29T05:43:19;99541.50;;;-5.04;72.67
49315;BME280;36672;50.710;12.498;2023-01-29T05:48:18;99544.91;;;-5.02;72.46
49315;BME280;36672;50.710;12.498;2023-01-29T05:50:44;99544.84;;;-5.01;72.72
49315;BME280;36672;50.710;12.498;2023-01-29T05:53:09;99551.91;;;-5.01;72.46
49315;BME280;36672;50.710;12.498;2023-01-29T05:55:34;99533.03;;;-5.11;72.74
49315;BME280;36672;50.710;12.498;2023-01-29T05:58:00;99546.06;;;-5.08;72.88
49315;BME280;36672;50.710;12.498;2023-01-29T06:00:25;99538.59;;;-5.17;72.97
49315;BME280;36672;50.710;12.498;2023-01-29T06:02:51;99550.94;;;-5.18;73.22
49315;BME280;36672;50.710;12.498;2023-01-29T06:05:16;99560.69;;;-5.20;73.30
49315;BME280;36672;50.710;12.498;2023-01-29T06:07:41;99549.81;;;-5.31;73.42
49315;BME280;36672;50.710;12.498;2023-01-29T06:10:14;99549.19;;;-5.36;73.19
49315;BME280;36672;50.710;12.498;2023-01-29T06:12:40;99565.63;;;-5.31;73.39
49315;BME280;36672;50.710;12.498;2023-01-29T06:15:06;99569.97;;;-5.30;73.55
49315;BME280;36672;50.710;12.498;2023-01-29T06:17:31;99560.78;;;-5.41;73.67
49315;BME280;36672;50.710;12.498;2023-01-29T06:19:57;99567.06;;;-5.43;73.74
49315;BME280;36672;50.710;12.498;2023-01-29T06:22:22;99579.72;;;-5.32;73.59
49315;BME280;36672;50.710;12.498;2023-01-29T06:24:47;99585.91;;;-5.33;73.43
49315;BME280;36672;50.710;12.498;2023-01-29T06:27:13;99587.69;;;-5.34;73.60
49315;BME280;36672;50.710;12.498;2023-01-29T06:29:38;99596.38;;;-5.32;73.54
49315;BME280;36672;50.710;12.498;2023-01-29T06:32:04;99600.66;;;-5.29;74.03
49315;BME280;36672;50.710;12.498;2023-01-29T06:34:29;99575.88;;;-5.44;73.41
49315;BME280;36672;50.710;12.498;2023-01-29T06:36:54;99589.97;;;-5.26;73.96
49315;BME280;36672;50.710;12.498;2023-01-29T06:39:20;99584.59;;;-5.25;73.68
49315;BME280;36672;50.710;12.498;2023-01-29T06:41:45;99566.53;;;-5.32;73.93
49315;BME280;36672;50.710;12.498;2023-01-29T06:44:10;99583.47;;;-5.19;73.40
49315;BME280;36672;50.710;12.498;2023-01-29T06:46:36;99577.72;;;-5.27;73.49
49315;BME280;36672;50.710;12.498;2023-01-29T06:49:02;99560.34;;;-5.31;73.27
49315;BME280;36672;50.710;12.498;2023-01-29T06:51:27;99585.13;;;-5.16;73.37
49315;BME280;36672;50.710;12.498;2023-01-29T06:53:53;99592.84;;;-5.13;73.17
49315;BME280;36672;50.710;12.498;2023-01-29T06:56:20;99584.91;;;-5.12;73.28
49315;BME280;36672;50.710;12.498;2023-01-29T06:58:46;99569.50;;;-5.21;73.14
49315;BME280;36672;50.710;12.498;2023-01-29T07:01:11;99583.19;;;-5.13;73.16
49315;BME280;36672;50.710;12.498;2023-01-29T07:03:37;99595.13;;;-5.05;73.28
49315;BME280;36672;50.710;12.498;2023-01-29T07:06:03;99595.69;;;-4.99;73.06
49315;BME280;36672;50.710;12.498;2023-01-29T07:08:28;99589.63;;;-5.01;73.29
49315;BME280;36672;50.710;12.498;2023-01-29T07:10:58;99619.03;;;-4.91;72.70
49315;BME280;36672;50.710;12.498;2023-01-29T07:13:24;99615.31;;;-4.87;73.23
49315;BME280;36672;50.710;12.498;2023-01-29T07:15:49;99609.34;;;-4.91;72.81
49315;BME280;36672;50.710;12.498;2023-01-29T07:18:15;99615.81;;;-4.79;73.08
49315;BME280;36672;50.710;12.498;2023-01-29T07:20:41;99619.84;;;-4.71;72.59
49315;BME280;36672;50.710;12.498;2023-01-29T07:23:11;99634.34;;;-4.63;72.33
49315;BME280;36672;50.710;12.498;2023-01-29T07:25:37;99630.50;;;-4.55;72.51
49315;BME280;36672;50.710;12.498;2023-01-29T07:28:02;99637.19;;;-4.48;72.28
49315;BME280;36672;50.710;12.498;2023-01-29T07:30:28;99625.66;;;-4.47;72.79
49315;BME280;36672;50.710;12.498;2023-01-29T07:32:54;99641.91;;;-4.37;71.80
49315;BME280;36672;50.710;12.498;2023-01-29T07:35:19;99644.13;;;-4.30;72.52
49315;BME280;36672;50.710;12.498;2023-01-29T07:37:48;99638.81;;;-4.28;72.03
49315;BME280;36672;50.710;12.498;2023-01-29T07:40:13;99633.38;;;-4.25;71.91
49315;BME280;36672;50.710;12.498;2023-01-29T07:42:39;99654.47;;;-4.07;71.32
49315;BME280;36672;50.710;12.498;2023-01-29T07:45:07;99660.19;;;-3.99;71.58
49315;BME280;36672;50.710;12.498;2023-01-29T07:47:32;99665.94;;;-3.91;71.43
49315;BME280;36672;50.710;12.498;2023-01-29T07:49:58;99676.50;;;-3.73;71.17
49315;BME280;36672;50.710;12.498;2023-01-29T07:52:23;99673.19;;;-3.61;71.39
49315;BME280;36672;50.710;12.498;2023-01-29T07:54:48;99673.50;;;-3.34;71.01
49315;BME280;36672;50.710;12.498;2023-01-29T07:57:14;99647.97;;;-3.01;70.26
49315;BME280;36672;50.710;12.498;2023-01-29T07:59:39;99675.13;;;-2.51;69.53
49315;BME280;36672;50.710;12.498;2023-01-29T08:02:05;99662.03;;;-2.08;68.59
49315;BME280;36672;50.710;12.498;2023-01-29T08:04:30;99665.88;;;-1.69;67.35
49315;BME280;36672;50.710;12.498;2023-01-29T08:06:55;99665.78;;;-1.53;66.44
49315;BME280;36672;50.710;12.498;2023-01-29T08:09:21;99672.81;;;-1.52;66.29
49315;BME280;36672;50.710;12.498;2023-01-29T08:11:46;99646.47;;;-1.69;65.70
49315;BME280;36672;50.710;12.498;2023-01-29T08:14:11;99664.06;;;-1.83;66.11
49315;BME280;36672;50.710;12.498;2023-01-29T08:16:37;99645.88;;;-2.03;66.14
49315;BME280;36672;50.710;12.498;2023-01-29T08:19:02;99665.34;;;-2.04;66.15
49315;BME280;36672;50.710;12.498;2023-01-29T08:21:27;99662.13;;;-2.09;66.29
49315;BME280;36672;50.710;12.498;2023-01-29T08:23:53;99665.31;;;-2.19;66.03
49315;BME280;36672;50.710;12.498;2023-01-29T08:26:19;99655.09;;;-2.25;66.39
49315;BME280;36672;50.710;12.498;2023-01-29T08:28:45;99655.78;;;-2.37;66.39
49315;BME280;36672;50.710;12.498;2023-01-29T08:31:14;99645.19;;;-2.52;66.18
49315;BME280;36672;50.710;12.498;2023-01-29T08:33:40;99641.75;;;-2.54;66.50
49315;BME280;36672;50.710;12.498;2023-01-29T08:36:06;99625.41;;;-2.76;66.64
49315;BME280;36672;50.710;12.498;2023-01-29T08:38:32;99637.00;;;-2.63;66.50
49315;BME280;36672;50.710;12.498;2023-01-29T08:40:57;99631.72;;;-2.63;66.46
49315;BME280;36672;50.710;12.498;2023-01-29T08:43:23;99625.19;;;-2.57;66.10
49315;BME280;36672;50.710;12.498;2023-01-29T08:45:49;99632.03;;;-2.53;67.19
49315;BME280;36672;50.710;12.498;2023-01-29T08:48:14;99603.44;;;-2.63;66.88
49315;BME280;36672;50.710;12.498;2023-01-29T08:50:39;99630.25;;;-2.38;66.33
49315;BME280;36672;50.710;12.498;2023-01-29T08:53:06;99588.66;;;-2.51;66.20
49315;BME280;36672;50.710;12.498;2023-01-29T08:55:35;99614.22;;;-2.35;66.15
49315;BME280;36672;50.710;12.498;2023-01-29T08:58:03;99604.66;;;-2.38;66.95
49315;BME280;36672;50.710;12.498;2023-01-29T09:00:29;99596.72;;;-2.38;66.38
49315;BME280;36672;50.710;12.498;2023-01-29T09:02:55;99600.06;;;-2.20;66.74
49315;BME280;36672;50.710;12.498;2023-01-29T09:05:20;99618.03;;;-2.10;66.87
49315;BME280;36672;50.710;12.498;2023-01-29T09:07:45;99628.94;;;-2.01;66.44
49315;BME280;36672;50.710;12.498;2023-01-29T09:10:11;99619.78;;;-1.95;66.21
49315;BME280;36672;50.710;12.498;2023-01-29T09:12:36;99610.97;;;-1.95;65.68
49315;BME280;36672;50.710;12.498;2023-01-29T09:15:02;99637.28;;;-1.78;65.29
49315;BME280;36672;50.710;12.498;2023-01-29T09:17:28;99638.63;;;-1.71;65.47
49315;BME280;36672;50.710;12.498;2023-01-29T09:19:53;99610.91;;;-1.79;65.09
49315;BME280;36672;50.710;12.498;2023-01-29T09:22:19;99624.72;;;-1.60;65.24
49315;BME280;36672;50.710;12.498;2023-01-29T09:24:44;99605.03;;;-1.56;65.54
49315;BME280;36672;50.710;12.498;2023-01-29T09:27:09;99631.31;;;-1.38;64.64
49315;BME280;36672;50.710;12.498;2023-01-29T09:29:35;99638.16;;;-1.49;64.54
49315;BME280;36672;50.710;12.498;2023-01-29T09:32:00;99636.44;;;-1.50;64.64
49315;BME280;36672;50.710;12.498;2023-01-29T09:34:26;99633.03;;;-1.66;64.38
49315;BME280;36672;50.710;12.498;2023-01-29T09:36:51;99650.84;;;-1.68;64.94
49315;BME280;36672;50.710;12.498;2023-01-29T09:39:17;99654.34;;;-1.68;64.73
49315;BME280;36672;50.710;12.498;2023-01-29T09:44:45;99632.78;;;-1.76;64.09
49315;BME280;36672;50.710;12.498;2023-01-29T09:47:14;99622.81;;;-1.72;64.94
49315;BME280;36672;50.710;12.498;2023-01-29T09:52:40;99597.81;;;-1.83;64.13
49315;BME280;36672;50.710;12.498;2023-01-29T09:55:24;99604.09;;;-1.69;64.02
49315;BME280;36672;50.710;12.498;2023-01-29T09:57:53;99622.72;;;-1.56;64.06
49315;BME280;36672;50.710;12.498;2023-01-29T10:03:03;99611.47;;;-1.60;64.45
49315;BME280;36672;50.710;12.498;2023-01-29T10:05:43;99609.38;;;-1.55;64.07
49315;BME280;36672;50.710;12.498;2023-01-29T10:11:15;99592.81;;;-1.58;64.52
49315;BME280;36672;50.710;12.498;2023-01-29T10:14:10;99574.84;;;-1.68;64.52
49315;BME280;36672;50.710;12.498;2023-01-29T10:16:59;99568.50;;;-1.65;64.54
49315;BME280;36672;50.710;12.498;2023-01-29T10:25:10;99556.50;;;-1.71;64.59
49315;BME280;36672;50.710;12.498;2023-01-29T10:27:39;99552.50;;;-1.64;64.49
49315;BME280;36672;50.710;12.498;2023-01-29T10:30:08;99552.59;;;-1.51;64.62
49315;BME280;36672;50.710;12.498;2023-01-29T10:32:43;99529.13;;;-1.57;64.31
49315;BME280;36672;50.710;12.498;2023-01-29T10:35:49;99567.97;;;-1.28;63.25
49315;BME280;36672;50.710;12.498;2023-01-29T10:38:45;99553.53;;;-1.10;63.13
49315;BME280;36672;50.710;12.498;2023-01-29T11:00:27;99512.66;;;-0.80;62.54
49315;BME280;36672;50.710;12.498;2023-01-29T11:02:55;99516.19;;;-0.67;62.36
49315;BME280;36672;50.710;12.498;2023-01-29T11:05:37;99515.38;;;-0.54;61.07
49315;BME280;36672;50.710;12.498;2023-01-29T11:08:11;99515.38;;;-0.54;61.72
49315;BME280;36672;50.710;12.498;2023-01-29T11:11:07;99504.09;;;-0.58;61.71
49315;BME280;36672;50.710;12.498;2023-01-29T11:13:39;99495.84;;;-0.40;61.87
49315;BME280;36672;50.710;12.498;2023-01-29T11:16:08;99491.69;;;-0.31;61.14
49315;BME280;36672;50.710;12.498;2023-01-29T11:18:50;99490.41;;;-0.26;61.42
49315;BME280;36672;50.710;12.498;2023-01-29T11:21:16;99466.84;;;-0.18;61.36
49315;BME280;36672;50.710;12.498;2023-01-29T11:23:41;99468.50;;;0.09;61.13
49315;BME280;36672;50.710;12.498;2023-01-29T11:26:09;99460.50;;;0.09;60.28
49315;BME280;36672;50.710;12.498;2023-01-29T11:31:01;99437.78;;;-0.08;61.38
49315;BME280;36672;50.710;12.498;2023-01-29T11:33:27;99442.13;;;0.06;60.99
49315;BME280;36672;50.710;12.498;2023-01-29T11:35:53;99432.69;;;0.02;61.08
49315;BME280;36672;50.710;12.498;2023-01-29T11:38:23;99448.41;;;0.05;60.37
49315;BME280;36672;50.710;12.498;2023-01-29T11:40:49;99441.16;;;0.07;60.72
49315;BME280;36672;50.710;12.498;2023-01-29T11:43:31;99437.88;;;0.17;58.97
49315;BME280;36672;50.710;12.498;2023-01-29T11:46:11;99430.53;;;0.07;58.36
49315;BME280;36672;50.710;12.498;2023-01-29T11:48:46;99411.72;;;0.10;59.02
49315;BME280;36672;50.710;12.498;2023-01-29T11:51:22;99377.06;;;0.12;59.63
49315;BME280;36672;50.710;12.498;2023-01-29T11:53:51;99408.28;;;0.45;58.91
49315;BME280;36672;50.710;12.498;2023-01-29T11:59:41;99406.19;;;0.86;57.37
49315;BME280;36672;50.710;12.498;2023-01-29T12:04:57;99384.63;;;1.82;56.69
49315;BME280;36672;50.710;12.498;2023-01-29T12:07:25;99385.84;;;1.89;56.19
49315;BME280;36672;50.710;12.498;2023-01-29T12:09:56;99381.91;;;2.16;55.25
49315;BME280;36672;50.710;12.498;2023-01-29T12:15:22;99362.19;;;2.39;53.49
49315;BME280;36672;50.710;12.498;2023-01-29T12:18:17;99362.19;;;2.72;52.13
49315;BME280;36672;50.710;12.498;2023-01-29T12:20:53;99361.88;;;3.07;52.95
49315;BME280;36672;50.710;12.498;2023-01-29T12:23:34;99347.56;;;3.39;51.55
49315;BME280;36672;50.710;12.498;2023-01-29T12:26:10;99360.88;;;4.01;51.67
49315;BME280;36672;50.710;12.498;2023-01-29T12:36:35;99372.22;;;4.93;50.40
49315;BME280;36672;50.710;12.498;2023-01-29T12:39:02;99381.69;;;4.78;50.41
49315;BME280;36672;50.710;12.498;2023-01-29T12:42:01;99378.78;;;4.11;48.33
49315;BME280;36672;50.710;12.498;2023-01-29T12:44:38;99356.97;;;3.65;49.23
49315;BME280;36672;50.710;12.498;2023-01-29T12:47:13;99340.06;;;3.02;52.10
49315;BME280;36672;50.710;12.498;2023-01-29T12:49:41;99342.94;;;2.89;52.49
49315;BME280;36672;50.710;12.498;2023-01-29T12:52:23;99329.19;;;2.52;51.87
49315;BME280;36672;50.710;12.498;2023-01-29T12:55:00;99315.56;;;2.34;52.15
49315;BME280;36672;50.710;12.498;2023-01-29T13:00:05;99295.78;;;2.04;52.98
49315;BME280;36672;50.710;12.498;2023-01-29T13:02:43;99311.13;;;2.11;53.04
49315;BME280;36672;50.710;12.498;2023-01-29T13:05:37;99317.06;;;2.15;51.85
49315;BME280;36672;50.710;12.498;2023-01-29T13:11:00;99313.09;;;2.09;53.21
49315;BME280;36672;50.710;12.498;2023-01-29T13:13:39;99316.66;;;1.87;53.16
49315;BME280;36672;50.710;12.498;2023-01-29T13:16:11;99313.16;;;1.87;53.57
49315;BME280;36672;50.710;12.498;2023-01-29T13:19:13;99315.00;;;1.75;53.58
49315;BME280;36672;50.710;12.498;2023-01-29T13:21:43;99307.59;;;1.78;53.80
49315;BME280;36672;50.710;12.498;2023-01-29T13:24:19;99305.41;;;1.84;53.16
49315;BME280;36672;50.710;12.498;2023-01-29T13:26:46;99309.03;;;1.94;53.73
49315;BME280;36672;50.710;12.498;2023-01-29T13:29:23;99295.03;;;1.69;53.06
49315;BME280;36672;50.710;12.498;2023-01-29T13:31:51;99297.56;;;1.59;54.01
49315;BME280;36672;50.710;12.498;2023-01-29T13:34:23;99296.88;;;1.57;54.01
49315;BME280;36672;50.710;12.498;2023-01-29T13:36:58;99310.19;;;1.46;54.17
49315;BME280;36672;50.710;12.498;2023-01-29T13:39:51;99307.13;;;0.83;54.94
49315;BME280;36672;50.710;12.498;2023-01-29T13:42:32;99309.78;;;0.83;55.63
49315;BME280;36672;50.710;12.498;2023-01-29T13:45:02;99312.44;;;0.83;56.46
49315;BME280;36672;50.710;12.498;2023-01-29T13:47:32;99314.00;;;0.74;56.50
49315;BME280;36672;50.710;12.498;2023-01-29T13:50:18;99305.69;;;0.43;56.94
49315;BME280;36672;50.710;12.498;2023-01-29T13:52:58;99307.53;;;0.54;56.99
49315;BME280;36672;50.710;12.498;2023-01-29T13:55:32;99305.28;;;0.72;56.95
49315;BME280;36672;50.710;12.498;2023-01-29T13:58:03;99280.59;;;0.58;56.86
49315;BME280;36672;50.710;12.498;2023-01-29T14:07:54;99292.97;;;0.35;57.25
49315;BME280;36672;50.710;12.498;2023-01-29T14:10:22;99282.41;;;0.22;57.55
49315;BME280;36672;50.710;12.498;2023-01-29T14:12:53;99271.06;;;-0.04;58.03
49315;BME280;36672;50.710;12.498;2023-01-29T14:18:19;99274.47;;;-0.26;58.53
49315;BME280;36672;50.710;12.498;2023-01-29T14:36:45;99261.13;;;-0.38;59.40
49315;BME280;36672;50.710;12.498;2023-01-29T14:39:34;99268.47;;;-0.41;59.96
49315;BME280;36672;50.710;12.498;2023-01-29T14:42:04;99247.31;;;-0.80;60.12
49315;BME280;36672;50.710;12.498;2023-01-29T14:52:43;99272.06;;;-0.79;60.60
49315;BME280;36672;50.710;12.498;2023-01-29T14:56:00;99264.34;;;-1.21;61.39
49315;BME280;36672;50.710;12.498;2023-01-29T14:58:12;99258.72;;;-1.42;62.38
49315;BME280;36672;50.710;12.498;2023-01-29T15:00:42;99278.75;;;-1.38;61.54
49315;BME280;36672;50.710;12.498;2023-01-29T15:03:27;99286.63;;;-1.37;62.49
49315;BME280;36672;50.710;12.498;2023-01-29T15:05:54;99245.47;;;-1.55;62.43
49315;BME280;36672;50.710;12.498;2023-01-29T15:08:36;99288.94;;;-1.32;62.09
49315;BME280;36672;50.710;12.498;2023-01-29T15:11:07;99289.69;;;-1.30;62.36
49315;BME280;36672;50.710;12.498;2023-01-29T15:14:02;99292.53;;;-1.33;62.98
49315;BME280;36672;50.710;12.498;2023-01-29T15:16:37;99289.56;;;-1.41;62.67
49315;BME280;36672;50.710;12.498;2023-01-29T15:19:34;99282.56;;;-1.42;63.05
49315;BME280;36672;50.710;12.498;2023-01-29T15:22:11;99272.50;;;-1.37;62.49
49315;BME280;36672;50.710;12.498;2023-01-29T15:24:38;99284.16;;;-1.40;62.52
49315;BME280;36672;50.710;12.498;2023-01-29T15:27:06;99272.91;;;-1.43;62.26
49315;BME280;36672;50.710;12.498;2023-01-29T15:29:34;99281.09;;;-1.46;62.44
49315;BME280;36672;50.710;12.498;2023-01-29T15:32:00;99288.81;;;-1.43;62.71
49315;BME280;36672;50.710;12.498;2023-01-29T15:34:25;99270.38;;;-1.58;62.61
49315;BME280;36672;50.710;12.498;2023-01-29T15:36:51;99285.72;;;-1.63;63.20
49315;BME280;36672;50.710;12.498;2023-01-29T15:39:22;99283.28;;;-1.66;63.64
49315;BME280;36672;50.710;12.498;2023-01-29T15:41:49;99275.31;;;-1.66;63.92